Time;durP1;ratioP1;P1;durP2;ratioP2;P2;SDS_P1;SDS_P2;PMS_P1;PMS_P2;Temp;Humidity;BMP_temperature;BMP_pressure;BME280_temperature;BME280_humidity;BME280_pressure;Samples;Min_cycle;Max_cycle;Signal;HPM_P1;HPM_P2
2022/08/08 00:00:10;;;;;;;3.67;2.25;;;22.10;56.40;;;;;;5034068;28;20032;-74
2022/08/08 00:03:03;;;;;;;4.50;2.40;;;22.10;56.80;;;;;;5033969;28;20433;-85
2022/08/08 00:05:40;;;;;;;4.57;2.30;;;22.10;57.10;;;;;;5039795;28;20378;-78
2022/08/08 00:08:31;;;;;;;2.30;2.10;;;22.10;57.20;;;;;;5053946;28;20024;-81
2022/08/08 00:11:14;;;;;;;4.30;2.45;;;22.00;57.20;;;;;;5048000;28;20037;-81
2022/08/08 00:14:10;;;;;;;3.65;2.97;;;22.00;57.70;;;;;;5032999;28;20029;-75
2022/08/08 00:16:48;;;;;;;3.03;2.45;;;22.00;58.00;;;;;;5036103;28;20020;-82
2022/08/08 00:19:35;;;;;;;4.32;2.80;;;21.90;58.50;;;;;;5051800;28;20393;-80
2022/08/08 00:22:08;;;;;;;3.40;2.58;;;22.00;58.60;;;;;;5035195;28;20076;-78
2022/08/08 00:24:41;;;;;;;2.57;2.37;;;22.00;58.50;;;;;;5065476;28;20052;-81
2022/08/08 00:27:10;;;;;;;2.88;2.20;;;22.00;58.50;;;;;;5033539;28;20471;-78
2022/08/08 00:29:58;;;;;;;2.50;2.30;;;22.00;58.50;;;;;;5033285;28;20044;-83
2022/08/08 00:32:33;;;;;;;6.18;2.92;;;22.00;59.10;;;;;;5033080;28;20088;-83
2022/08/08 00:35:27;;;;;;;4.28;2.42;;;22.00;59.00;;;;;;5032106;28;20061;-81
2022/08/08 00:38:16;;;;;;;10.23;3.60;;;22.00;58.70;;;;;;5016096;28;20503;-72
2022/08/08 00:41:04;;;;;;;3.60;2.58;;;22.00;58.10;;;;;;5033556;28;20467;-79
2022/08/08 00:43:33;;;;;;;2.47;2.28;;;22.00;58.20;;;;;;5033103;28;20387;-80
2022/08/08 00:46:36;;;;;;;4.50;2.67;;;22.00;58.40;;;;;;5033056;28;20020;-78
2022/08/08 00:49:40;;;;;;;6.82;3.00;;;22.00;58.70;;;;;;5032569;28;20043;-79
2022/08/08 00:52:36;;;;;;;3.75;2.90;;;22.00;58.40;;;;;;5033246;28;20088;-83
2022/08/08 00:55:24;;;;;;;5.50;2.60;;;21.90;58.90;;;;;;5033059;28;20026;-79
2022/08/08 00:58:24;;;;;;;3.20;2.67;;;21.90;59.10;;;;;;5032112;28;20067;-84
2022/08/08 01:01:15;;;;;;;5.28;2.70;;;21.90;59.40;;;;;;5033052;28;20029;-75
2022/08/08 01:04:18;;;;;;;3.72;2.40;;;21.80;59.10;;;;;;5031679;28;20110;-79
2022/08/08 01:07:02;;;;;;;4.28;2.90;;;21.80;59.60;;;;;;5031530;28;20030;-76
2022/08/08 01:10:02;;;;;;;2.97;2.28;;;21.80;59.90;;;;;;5032719;28;20554;-76
2022/08/08 01:12:41;;;;;;;4.22;2.63;;;21.80;59.70;;;;;;5032254;28;20513;-79
2022/08/08 01:15:10;;;;;;;3.33;2.63;;;21.80;60.30;;;;;;5032570;28;20021;-73
2022/08/08 01:17:45;;;;;;;6.45;2.53;;;21.70;60.20;;;;;;5047941;28;20025;-82
2022/08/08 01:20:46;;;;;;;8.32;3.15;;;21.70;60.20;;;;;;5032217;28;20046;-74
2022/08/08 01:23:23;;;;;;;4.00;2.90;;;21.60;59.80;;;;;;5031558;28;20041;-77
2022/08/08 01:26:01;;;;;;;4.90;2.70;;;21.60;59.80;;;;;;5032112;28;20394;-78
2022/08/08 01:28:52;;;;;;;3.90;3.03;;;21.50;59.70;;;;;;5031236;28;20060;-78
2022/08/08 01:31:34;;;;;;;5.43;3.03;;;21.50;59.60;;;;;;5027768;28;20034;-78
2022/08/08 01:34:21;;;;;;;4.18;2.80;;;21.40;60.20;;;;;;5031541;28;20125;-76
2022/08/08 01:37:18;;;;;;;4.55;3.40;;;21.40;60.00;;;;;;5032621;28;20048;-83
2022/08/08 01:40:00;;;;;;;2.60;2.40;;;21.40;60.00;;;;;;5023200;28;20057;-75
2022/08/08 01:42:58;;;;;;;4.63;3.20;;;21.40;59.90;;;;;;5032457;28;20017;-76
2022/08/08 01:45:48;;;;;;;3.38;2.63;;;21.30;59.80;;;;;;5016405;28;20112;-76
2022/08/08 01:48:52;;;;;;;4.00;2.85;;;21.30;59.50;;;;;;5032054;28;20471;-79
2022/08/08 01:51:40;;;;;;;4.53;2.80;;;21.30;59.40;;;;;;5010290;28;20185;-77
2022/08/08 01:54:21;;;;;;;4.18;2.70;;;21.20;59.20;;;;;;5010597;28;20030;-79
2022/08/08 01:57:08;;;;;;;4.80;2.60;;;21.20;59.40;;;;;;5000679;28;20035;-79
2022/08/08 01:59:47;;;;;;;5.32;2.35;;;21.20;59.70;;;;;;4990778;28;20097;-81
2022/08/08 02:02:37;;;;;;;4.50;2.80;;;21.20;59.20;;;;;;4974773;28;20495;-72
2022/08/08 02:05:35;;;;;;;3.35;2.63;;;21.20;59.10;;;;;;4991171;28;20026;-80
2022/08/08 02:08:38;;;;;;;4.13;2.67;;;21.20;59.10;;;;;;5013195;28;20115;-80
2022/08/08 02:11:32;;;;;;;3.97;2.60;;;21.20;58.90;;;;;;5006858;28;20060;-75
2022/08/08 02:14:07;;;;;;;4.13;2.60;;;21.20;59.00;;;;;;5013961;28;20030;-79
2022/08/08 02:16:44;;;;;;;3.15;2.25;;;21.20;59.40;;;;;;5014192;28;20073;-73
2022/08/08 02:19:24;;;;;;;2.88;2.22;;;21.10;59.50;;;;;;5013814;28;20026;-78
2022/08/08 02:24:52;;;;;;;6.68;2.78;;;21.10;59.70;;;;;;5012412;28;20053;-77
2022/08/08 02:27:23;;;;;;;6.30;3.03;;;21.10;59.60;;;;;;5029235;28;20029;-79
2022/08/08 02:30:20;;;;;;;4.72;2.58;;;21.10;59.80;;;;;;5035722;28;20049;-81
2022/08/08 02:33:04;;;;;;;3.22;2.45;;;21.10;59.90;;;;;;5035436;28;20018;-79
2022/08/08 02:36:02;;;;;;;5.43;2.40;;;21.00;60.20;;;;;;5035580;28;20525;-76
2022/08/08 02:38:46;;;;;;;3.55;2.63;;;21.00;60.10;;;;;;5035762;28;20029;-77
2022/08/08 02:41:29;;;;;;;3.90;3.08;;;21.00;60.30;;;;;;5035412;28;20025;-78
2022/08/08 02:44:04;;;;;;;5.20;2.65;;;21.00;59.80;;;;;;5035424;28;20045;-81
2022/08/08 02:46:39;;;;;;;5.30;2.55;;;21.00;60.10;;;;;;5034921;28;20033;-80
2022/08/08 02:49:30;;;;;;;7.97;3.22;;;21.00;60.40;;;;;;5035212;28;20029;-83
2022/08/08 02:52:05;;;;;;;3.25;2.65;;;21.00;60.30;;;;;;5035442;28;20021;-82
2022/08/08 02:55:14;;;;;;;4.38;2.70;;;21.00;60.10;;;;;;5035403;28;20079;-81
2022/08/08 02:57:49;;;;;;;3.53;2.70;;;21.00;60.20;;;;;;4993846;28;20109;-80
2022/08/08 03:00:33;;;;;;;2.50;2.30;;;21.00;59.90;;;;;;4993681;28;20034;-78
2022/08/08 03:03:36;;;;;;;4.03;2.47;;;21.00;60.00;;;;;;4973464;28;20039;-76
2022/08/08 03:06:42;;;;;;;3.55;2.80;;;21.00;60.00;;;;;;4973488;28;20027;-84
2022/08/08 03:09:45;;;;;;;3.90;2.70;;;21.10;59.90;;;;;;4973306;28;20041;-78
2022/08/08 03:12:32;;;;;;;2.88;2.50;;;21.00;59.80;;;;;;4973188;28;20065;-78
2022/08/08 03:15:20;;;;;;;3.78;2.30;;;21.00;60.00;;;;;;4990912;28;20126;-75
2022/08/08 03:18:14;;;;;;;4.10;3.15;;;21.00;60.10;;;;;;4992467;28;20540;-83
2022/08/08 03:20:52;;;;;;;4.10;2.70;;;21.00;60.00;;;;;;5008467;28;20059;-81
2022/08/08 03:23:20;;;;;;;2.85;2.20;;;21.00;60.80;;;;;;4992516;28;20023;-77
2022/08/08 03:25:47;;;;;;;2.60;2.40;;;21.00;60.60;;;;;;4992403;28;20026;-77
2022/08/08 03:28:48;;;;;;;3.97;3.10;;;21.10;60.10;;;;;;5008197;28;20044;-82
2022/08/08 03:34:08;;;;;;;2.63;2.15;;;21.10;60.00;;;;;;5011761;28;20076;-83
2022/08/08 03:36:41;;;;;;;3.13;2.53;;;21.10;59.70;;;;;;5011438;28;20041;-81
2022/08/08 03:39:10;;;;;;;3.90;2.90;;;21.00;59.80;;;;;;5011205;28;20037;-80
2022/08/08 03:41:36;;;;;;;4.60;2.90;;;21.10;59.90;;;;;;5010840;28;20761;-79
2022/08/08 03:44:02;;;;;;;3.55;2.67;;;21.10;59.20;;;;;;5011192;28;20100;-74
2022/08/08 03:46:28;;;;;;;4.75;2.70;;;21.10;59.10;;;;;;5011040;28;20537;-72
2022/08/08 03:48:58;;;;;;;7.50;2.45;;;21.10;59.40;;;;;;5011146;28;20030;-76
2022/08/08 03:51:24;;;;;;;3.55;2.50;;;21.10;59.50;;;;;;5011291;28;20133;-76
2022/08/08 03:53:54;;;;;;;2.30;2.10;;;21.10;59.50;;;;;;5011809;28;20038;-78
2022/08/08 03:56:21;;;;;;;3.65;2.60;;;21.10;59.40;;;;;;5015211;28;20388;-76
2022/08/08 03:58:51;;;;;;;4.00;2.55;;;21.10;59.40;;;;;;5013679;28;20675;-73
2022/08/08 04:01:19;;;;;;;3.05;2.13;;;21.10;59.30;;;;;;5030830;28;20089;-77
2022/08/08 04:03:47;;;;;;;5.38;2.38;;;21.10;59.20;;;;;;5015759;28;20113;-81
2022/08/08 04:06:14;;;;;;;2.95;2.10;;;21.10;59.20;;;;;;5016396;28;20418;-69
2022/08/08 04:08:41;;;;;;;4.25;2.20;;;21.10;59.00;;;;;;5033281;28;20028;-68
2022/08/08 04:11:08;;;;;;;3.65;2.00;;;21.10;58.90;;;;;;5032778;28;20030;-68
2022/08/08 04:13:34;;;;;;;2.50;2.00;;;21.20;59.10;;;;;;5048089;28;20454;-68
2022/08/08 04:16:00;;;;;;;3.97;2.80;;;21.20;58.90;;;;;;5033265;28;20030;-68
2022/08/08 04:18:26;;;;;;;3.47;2.58;;;21.10;59.20;;;;;;5033288;28;20071;-68
2022/08/08 04:20:52;;;;;;;2.60;1.98;;;21.20;59.20;;;;;;5033122;28;20053;-68
2022/08/08 04:23:18;;;;;;;2.50;2.30;;;21.20;59.30;;;;;;5033442;28;20058;-69
2022/08/08 04:25:44;;;;;;;2.30;2.10;;;21.20;59.20;;;;;;5033349;28;20374;-69
2022/08/08 04:28:09;;;;;;;4.10;2.00;;;21.20;59.20;;;;;;5033222;28;20033;-67
2022/08/08 04:30:35;;;;;;;4.63;2.53;;;21.20;59.20;;;;;;5031867;28;20022;-66
2022/08/08 04:33:01;;;;;;;2.08;1.88;;;21.20;59.20;;;;;;5033757;28;20399;-67
2022/08/08 04:35:27;;;;;;;4.10;2.53;;;21.30;59.20;;;;;;5036730;28;20074;-67
2022/08/08 04:37:54;;;;;;;3.00;2.10;;;21.30;59.20;;;;;;5047307;28;20079;-67
2022/08/08 04:40:20;;;;;;;4.75;2.45;;;21.30;59.20;;;;;;5052743;28;20021;-67
2022/08/08 04:42:47;;;;;;;3.08;2.30;;;21.30;59.20;;;;;;5052708;28;20418;-68
2022/08/08 04:45:13;;;;;;;2.65;2.40;;;21.30;59.30;;;;;;5051422;28;20047;-67
2022/08/08 04:47:39;;;;;;;2.05;1.85;;;21.40;59.30;;;;;;5045856;28;20025;-68
2022/08/08 04:50:05;;;;;;;5.15;1.85;;;21.40;59.30;;;;;;5052817;28;20378;-67
2022/08/08 04:52:31;;;;;;;2.95;2.38;;;21.50;59.40;;;;;;5049298;28;20475;-67
2022/08/08 04:54:57;;;;;;;2.58;2.28;;;21.50;59.20;;;;;;5032604;28;20052;-66
2022/08/08 04:57:23;;;;;;;4.18;2.20;;;21.50;59.20;;;;;;5032816;28;20021;-68
2022/08/08 04:59:50;;;;;;;2.97;2.00;;;21.60;59.20;;;;;;5032625;28;20479;-67
2022/08/08 05:02:15;;;;;;;2.88;2.10;;;21.60;59.10;;;;;;5032692;28;20096;-68
2022/08/08 05:04:42;;;;;;;3.08;2.08;;;21.60;59.00;;;;;;5031363;28;20104;-67
2022/08/08 05:07:08;;;;;;;2.65;2.22;;;21.70;59.00;;;;;;5032574;28;20026;-67
2022/08/08 05:09:34;;;;;;;3.35;2.22;;;21.70;59.60;;;;;;5032698;28;20048;-67
2022/08/08 05:12:02;;;;;;;2.42;1.88;;;21.70;58.90;;;;;;5032527;28;20096;-67
2022/08/08 05:14:28;;;;;;;5.28;2.10;;;21.80;58.90;;;;;;5032561;28;20026;-67
2022/08/08 05:16:54;;;;;;;2.92;1.85;;;21.80;58.80;;;;;;5032453;28;20022;-68
2022/08/08 05:19:21;;;;;;;2.58;2.20;;;21.90;58.80;;;;;;5031853;28;20046;-67
2022/08/08 05:21:48;;;;;;;2.03;1.80;;;21.90;58.60;;;;;;5032510;28;20067;-67
2022/08/08 05:24:15;;;;;;;5.05;2.20;;;21.90;58.50;;;;;;5032443;28;20025;-67
2022/08/08 05:26:45;;;;;;;3.60;1.90;;;22.00;58.50;;;;;;5032452;28;20100;-67
2022/08/08 05:29:11;;;;;;;2.67;2.05;;;22.00;58.50;;;;;;5032356;28;20387;-68
2022/08/08 05:31:36;;;;;;;2.35;1.88;;;22.10;58.20;;;;;;5032462;28;20105;-68
2022/08/08 05:34:05;;;;;;;2.60;1.88;;;22.10;58.10;;;;;;5031847;28;20033;-67
2022/08/08 05:36:34;;;;;;;3.45;2.35;;;22.20;58.60;;;;;;5032337;28;20017;-68
2022/08/08 05:39:04;;;;;;;5.07;3.35;;;22.20;57.80;;;;;;5031057;28;20025;-67
2022/08/08 05:41:34;;;;;;;2.53;2.15;;;22.30;57.50;;;;;;5033400;28;20029;-67
2022/08/08 05:44:11;;;;;;;5.45;2.10;;;22.40;57.30;;;;;;5036122;28;20057;-68
2022/08/08 05:46:39;;;;;;;3.17;1.90;;;22.40;57.00;;;;;;5036358;28;20021;-67
2022/08/08 05:49:07;;;;;;;6.70;2.30;;;22.50;57.00;;;;;;5036320;28;20498;-68
2022/08/08 05:51:33;;;;;;;4.13;2.50;;;22.60;56.90;;;;;;5036229;28;20060;-67
2022/08/08 05:53:59;;;;;;;3.13;2.08;;;22.60;56.70;;;;;;5036110;28;20390;-67
2022/08/08 05:56:27;;;;;;;2.80;1.98;;;22.70;56.70;;;;;;5036059;28;20037;-67
2022/08/08 05:59:16;;;;;;;4.78;2.50;;;22.70;56.50;;;;;;5036038;28;20025;-68
2022/08/08 06:01:42;;;;;;;3.05;1.95;;;22.80;56.30;;;;;;5034810;28;20029;-67
2022/08/08 06:04:10;;;;;;;3.33;2.53;;;22.90;56.40;;;;;;5035983;28;20028;-67
2022/08/08 06:06:39;;;;;;;2.03;1.80;;;23.00;56.50;;;;;;5035482;28;20052;-68
2022/08/08 06:09:07;;;;;;;6.57;2.33;;;23.00;56.20;;;;;;5035558;28;20026;-67
2022/08/08 06:11:33;;;;;;;9.77;2.83;;;23.20;55.80;;;;;;5035920;28;20489;-67
2022/08/08 06:14:04;;;;;;;2.88;2.00;;;23.20;55.20;;;;;;5036002;28;20026;-68
2022/08/08 06:16:37;;;;;;;3.47;1.92;;;23.30;55.00;;;;;;5035796;28;20052;-68
2022/08/08 06:19:03;;;;;;;2.90;2.47;;;23.40;55.00;;;;;;5035602;28;20018;-68
2022/08/08 06:21:30;;;;;;;3.05;2.20;;;23.50;54.50;;;;;;5035797;28;20487;-67
2022/08/08 06:23:56;;;;;;;2.78;2.03;;;23.60;54.90;;;;;;5033925;28;20390;-68
2022/08/08 06:26:25;;;;;;;3.15;2.40;;;23.70;55.20;;;;;;5035709;28;20477;-68
2022/08/08 06:29:10;;;;;;;3.15;2.10;;;23.80;55.10;;;;;;5035621;28;20029;-68
2022/08/08 06:31:37;;;;;;;2.65;1.92;;;23.90;54.40;;;;;;5035361;28;20025;-67
2022/08/08 06:34:03;;;;;;;4.50;2.05;;;24.00;52.20;;;;;;5047503;28;20490;-67
2022/08/08 06:36:43;;;;;;;4.30;1.52;;;24.10;52.20;;;;;;5015712;28;20040;-68
2022/08/08 06:39:13;;;;;;;3.90;2.00;;;24.30;52.30;;;;;;5015676;28;20026;-68
2022/08/08 06:41:57;;;;;;;5.18;2.00;;;24.30;52.30;;;;;;5029339;28;20030;-67
2022/08/08 06:44:24;;;;;;;3.40;1.90;;;24.40;52.40;;;;;;5035355;28;20028;-67
2022/08/08 06:46:52;;;;;;;4.60;2.08;;;24.50;52.40;;;;;;5035236;28;20056;-67
2022/08/08 06:49:18;;;;;;;3.85;2.03;;;24.70;52.10;;;;;;5035171;28;20028;-68
2022/08/08 06:51:44;;;;;;;4.43;2.05;;;24.70;51.70;;;;;;5034872;28;20041;-68
2022/08/08 06:54:10;;;;;;;7.70;2.22;;;24.80;51.70;;;;;;5035120;28;20385;-68
2022/08/08 06:56:36;;;;;;;4.65;1.90;;;24.80;51.70;;;;;;5034744;28;20475;-68
2022/08/08 06:59:03;;;;;;;6.82;2.67;;;24.90;51.40;;;;;;5034364;28;20095;-69
2022/08/08 07:01:36;;;;;;;3.80;1.95;;;24.90;51.20;;;;;;5034882;28;20013;-67
2022/08/08 07:04:10;;;;;;;2.83;2.05;;;24.90;51.50;;;;;;5034886;28;20383;-68
2022/08/08 07:06:41;;;;;;;2.97;1.92;;;25.00;51.50;;;;;;5035267;28;20379;-67
2022/08/08 07:09:18;;;;;;;4.35;1.92;;;25.10;51.20;;;;;;5034949;28;20030;-68
2022/08/08 07:11:50;;;;;;;5.20;2.25;;;25.10;49.90;;;;;;5034813;28;20113;-67
2022/08/08 07:14:25;;;;;;;3.85;2.20;;;25.10;49.90;;;;;;5033012;28;20086;-67
2022/08/08 07:17:08;;;;;;;8.18;2.38;;;25.20;49.90;;;;;;5034721;28;20475;-68
2022/08/08 07:19:36;;;;;;;6.65;2.33;;;25.20;49.40;;;;;;5034404;28;20438;-68
2022/08/08 07:22:05;;;;;;;3.08;1.98;;;25.20;48.50;;;;;;5043868;28;20054;-67
2022/08/08 07:24:41;;;;;;;7.88;1.90;;;25.20;48.60;;;;;;5030027;28;20029;-67
2022/08/08 07:27:11;;;;;;;3.28;2.22;;;25.20;48.50;;;;;;5014679;28;20026;-67
2022/08/08 07:29:38;;;;;;;6.38;2.25;;;25.20;48.30;;;;;;5014589;28;20056;-67
2022/08/08 07:32:06;;;;;;;3.05;1.85;;;25.20;48.50;;;;;;5032508;28;20029;-66
2022/08/08 07:34:34;;;;;;;3.28;2.40;;;25.20;48.20;;;;;;5034299;28;20489;-69
2022/08/08 07:37:02;;;;;;;4.32;2.13;;;25.20;48.40;;;;;;5034259;28;20029;-67
2022/08/08 07:39:30;;;;;;;2.65;2.10;;;25.30;48.60;;;;;;5034136;28;20493;-66
2022/08/08 07:41:58;;;;;;;5.90;2.25;;;25.30;49.20;;;;;;5034190;28;20459;-68
2022/08/08 07:44:24;;;;;;;3.47;2.30;;;25.40;48.90;;;;;;5034218;28;20028;-67
2022/08/08 07:46:50;;;;;;;7.13;2.10;;;25.60;48.50;;;;;;5033768;28;20025;-68
2022/08/08 07:49:16;;;;;;;3.55;2.63;;;25.70;48.60;;;;;;5033572;28;20410;-67
2022/08/08 07:51:43;;;;;;;2.90;2.10;;;25.90;47.80;;;;;;5033920;28;20505;-68
2022/08/08 07:54:32;;;;;;;6.47;2.08;;;26.10;46.60;;;;;;5033920;28;20144;-67
2022/08/08 07:57:10;;;;;;;4.82;1.92;;;26.10;45.90;;;;;;5033905;28;20378;-66
2022/08/08 08:00:04;;;;;;;2.45;1.80;;;26.30;45.30;;;;;;5033756;28;20025;-67
2022/08/08 08:02:59;;;;;;;3.20;2.03;;;26.40;45.10;;;;;;5032275;28;20459;-67
2022/08/08 08:05:29;;;;;;;2.88;1.83;;;26.40;45.40;;;;;;5032940;28;20034;-68
2022/08/08 08:08:09;;;;;;;7.10;1.85;;;26.60;45.20;;;;;;5033274;28;20017;-67
2022/08/08 08:10:37;;;;;;;4.57;1.70;;;26.60;45.40;;;;;;5033727;28;20433;-67
2022/08/08 08:13:24;;;;;;;6.15;2.10;;;26.80;45.10;;;;;;5033014;28;20021;-67
2022/08/08 08:16:12;;;;;;;5.07;2.22;;;26.90;44.10;;;;;;5033560;28;20033;-67
2022/08/08 08:18:43;;;;;;;2.20;1.45;;;27.10;44.30;;;;;;5033548;28;20075;-68
2022/08/08 08:21:10;;;;;;;2.55;1.52;;;27.10;42.60;;;;;;5048686;28;20077;-67
2022/08/08 08:23:37;;;;;;;2.25;1.45;;;27.20;41.90;;;;;;5033093;28;20018;-67
2022/08/08 08:26:03;;;;;;;1.77;1.35;;;27.30;41.90;;;;;;5033414;28;20018;-67
2022/08/08 08:28:30;;;;;;;1.40;1.20;;;27.30;42.10;;;;;;5033606;28;20017;-69
2022/08/08 08:30:57;;;;;;;2.65;1.40;;;27.40;41.90;;;;;;5033311;28;20071;-68
2022/08/08 08:33:23;;;;;;;3.88;1.95;;;27.50;41.30;;;;;;5033340;28;20033;-68
2022/08/08 08:35:49;;;;;;;3.53;1.98;;;27.60;41.40;;;;;;5033250;28;20029;-69
2022/08/08 08:38:15;;;;;;;4.03;1.90;;;27.70;41.30;;;;;;5032850;28;20033;-68
2022/08/08 08:40:41;;;;;;;2.80;1.70;;;27.80;41.40;;;;;;5032406;28;20029;-68
2022/08/08 08:43:07;;;;;;;4.47;1.40;;;28.00;41.30;;;;;;5033166;28;20017;-69
2022/08/08 08:45:35;;;;;;;4.68;1.50;;;28.10;40.70;;;;;;5033076;28;20643;-67
2022/08/08 08:48:01;;;;;;;3.63;1.38;;;28.20;39.70;;;;;;5033047;28;20105;-69
2022/08/08 08:50:28;;;;;;;3.10;1.45;;;28.30;39.00;;;;;;5033003;28;20029;-68
2022/08/08 08:52:56;;;;;;;2.60;1.60;;;28.30;39.40;;;;;;5032029;28;20424;-67
2022/08/08 08:55:23;;;;;;;3.70;1.75;;;28.30;38.50;;;;;;5033169;28;20378;-68
2022/08/08 08:57:52;;;;;;;2.97;1.65;;;28.30;38.80;;;;;;5032542;28;20025;-68
2022/08/08 09:00:18;;;;;;;2.70;2.03;;;28.30;38.80;;;;;;5031384;28;20021;-68
2022/08/08 09:02:46;;;;;;;3.13;1.50;;;28.30;39.00;;;;;;5032414;28;20041;-68
2022/08/08 09:05:13;;;;;;;4.28;1.73;;;28.30;39.10;;;;;;5031531;28;20071;-69
2022/08/08 09:07:41;;;;;;;6.55;2.13;;;28.30;37.60;;;;;;5032761;28;20356;-67
2022/08/08 09:10:07;;;;;;;2.03;1.67;;;28.30;36.90;;;;;;5032627;28;20463;-68
2022/08/08 09:12:34;;;;;;;3.97;2.33;;;28.20;37.90;;;;;;5031063;28;20052;-69
2022/08/08 09:15:00;;;;;;;3.72;2.00;;;28.20;38.00;;;;;;5030791;28;20466;-68
2022/08/08 09:17:27;;;;;;;3.03;1.92;;;28.10;38.10;;;;;;5015420;28;20022;-76
2022/08/08 09:19:58;;;;;;;4.05;2.00;;;28.00;36.90;;;;;;5018244;28;20131;-73
2022/08/08 09:22:25;;;;;;;5.43;2.50;;;27.80;37.20;;;;;;5030563;28;20025;-71
2022/08/08 09:24:52;;;;;;;3.53;2.00;;;27.60;37.40;;;;;;5014297;28;20036;-70
2022/08/08 09:27:20;;;;;;;3.75;1.77;;;27.50;38.00;;;;;;5037047;28;20021;-72
2022/08/08 09:30:00;;;;;;;4.45;2.25;;;27.30;38.30;;;;;;5032289;28;20076;-71
2022/08/08 09:32:38;;;;;;;8.20;2.95;;;27.10;38.10;;;;;;5031183;28;20048;-73
2022/08/08 09:35:08;;;;;;;4.40;2.30;;;26.90;38.50;;;;;;5030492;28;20116;-72
2022/08/08 09:37:49;;;;;;;5.28;2.70;;;26.80;38.70;;;;;;5032239;28;20483;-72
2022/08/08 09:40:26;;;;;;;3.40;2.10;;;26.60;39.10;;;;;;5032336;28;20025;-72
2022/08/08 09:43:22;;;;;;;11.15;2.28;;;26.50;39.10;;;;;;5032299;28;20018;-72
2022/08/08 09:46:02;;;;;;;3.13;1.77;;;26.40;39.20;;;;;;5032266;28;20056;-72
2022/08/08 09:48:33;;;;;;;5.68;2.13;;;26.30;39.80;;;;;;5032217;28;20025;-72
2022/08/08 09:51:00;;;;;;;2.95;1.90;;;26.30;40.00;;;;;;5030248;28;20370;-72
2022/08/08 09:53:51;;;;;;;7.63;2.13;;;26.30;39.40;;;;;;5032290;28;20033;-72
2022/08/08 09:56:19;;;;;;;4.35;1.75;;;26.30;40.30;;;;;;5031564;28;20017;-72
2022/08/08 09:58:53;;;;;;;4.00;1.73;;;26.20;40.40;;;;;;5031631;28;20025;-72
2022/08/08 10:01:22;;;;;;;5.80;2.15;;;26.20;41.70;;;;;;5032248;28;20383;-72
2022/08/08 10:03:49;;;;;;;3.25;1.98;;;26.20;41.10;;;;;;5014597;28;20439;-72
2022/08/08 10:06:17;;;;;;;3.42;1.98;;;26.30;41.40;;;;;;5032180;28;20017;-72
2022/08/08 10:08:47;;;;;;;6.55;2.00;;;26.40;41.20;;;;;;5031784;28;20020;-72
2022/08/08 10:11:17;;;;;;;13.88;2.58;;;26.40;40.90;;;;;;5032044;28;20034;-72
2022/08/08 10:14:00;;;;;;;3.08;1.88;;;26.40;40.40;;;;;;5032121;28;20028;-72
2022/08/08 10:16:40;;;;;;;4.82;1.67;;;26.40;40.50;;;;;;5040337;28;20025;-72
2022/08/08 10:19:10;;;;;;;2.67;2.00;;;26.50;40.80;;;;;;5049865;28;20104;-72
2022/08/08 10:21:37;;;;;;;8.40;2.50;;;26.60;40.90;;;;;;5051934;28;20485;-72
2022/08/08 10:24:08;;;;;;;7.63;2.17;;;26.60;40.10;;;;;;5034099;28;20029;-72
2022/08/08 10:26:54;;;;;;;6.28;2.03;;;26.70;40.30;;;;;;5040198;28;20017;-72
2022/08/08 10:29:53;;;;;;;5.25;2.30;;;26.80;40.70;;;;;;5035613;28;20029;-72
2022/08/08 10:32:34;;;;;;;5.63;2.05;;;26.90;40.40;;;;;;5023613;28;20071;-72
2022/08/08 10:35:03;;;;;;;7.93;2.28;;;27.00;39.90;;;;;;5017691;28;20078;-72
2022/08/08 10:37:32;;;;;;;3.33;1.77;;;27.10;38.90;;;;;;5035658;28;20510;-72
2022/08/08 10:40:01;;;;;;;5.70;2.53;;;27.10;39.80;;;;;;5035285;28;20029;-72
2022/08/08 10:42:35;;;;;;;3.50;1.95;;;27.30;39.90;;;;;;5041721;28;20025;-72
2022/08/08 10:45:05;;;;;;;6.72;2.00;;;27.30;39.30;;;;;;5017441;28;20021;-72
2022/08/08 10:47:31;;;;;;;4.65;1.88;;;27.50;39.70;;;;;;5035148;28;20064;-72
2022/08/08 10:50:06;;;;;;;3.33;1.98;;;27.60;39.50;;;;;;5035180;28;20045;-72
2022/08/08 10:52:37;;;;;;;8.18;2.50;;;27.70;38.10;;;;;;5017372;28;20030;-72
2022/08/08 10:55:08;;;;;;;4.32;2.08;;;27.80;37.80;;;;;;5035103;28;20041;-72
2022/08/08 10:57:50;;;;;;;5.93;2.03;;;27.80;38.70;;;;;;5035106;28;20029;-72
2022/08/08 11:00:23;;;;;;;4.25;1.70;;;27.90;38.80;;;;;;5034433;28;20033;-72
2022/08/08 11:02:50;;;;;;;3.60;2.22;;;28.00;38.80;;;;;;5034961;28;20022;-72
2022/08/08 11:05:17;;;;;;;7.32;2.28;;;28.00;38.60;;;;;;5036287;28;20040;-72
2022/08/08 11:07:49;;;;;;;10.45;2.40;;;28.10;38.30;;;;;;5054487;28;20021;-72
2022/08/08 11:10:17;;;;;;;2.90;1.90;;;28.10;37.90;;;;;;5038268;28;20052;-72
2022/08/08 11:12:54;;;;;;;5.28;1.95;;;28.20;37.80;;;;;;5034775;28;20506;-72
2022/08/08 11:15:23;;;;;;;3.65;2.05;;;28.20;37.60;;;;;;5034769;28;20021;-72
2022/08/08 11:17:50;;;;;;;3.90;1.73;;;28.30;36.60;;;;;;5034538;28;20020;-72
2022/08/08 11:20:21;;;;;;;4.10;1.80;;;28.30;37.20;;;;;;5034358;28;20388;-72
2022/08/08 11:22:58;;;;;;;3.20;1.67;;;28.30;37.30;;;;;;5034656;28;20364;-72
2022/08/08 11:25:26;;;;;;;6.57;2.03;;;28.30;36.70;;;;;;5034513;28;20044;-72
2022/08/08 11:28:00;;;;;;;4.80;1.85;;;28.40;36.70;;;;;;5034501;28;20064;-72
2022/08/08 11:30:31;;;;;;;4.03;1.83;;;28.40;36.40;;;;;;5038526;28;20094;-72
2022/08/08 11:33:00;;;;;;;3.33;1.58;;;28.40;36.20;;;;;;5046779;28;20029;-72
2022/08/08 11:35:27;;;;;;;3.33;2.13;;;28.50;36.30;;;;;;5034173;28;20025;-72
2022/08/08 11:37:53;;;;;;;3.28;2.15;;;28.50;35.50;;;;;;5034086;28;20037;-72
2022/08/08 11:40:19;;;;;;;3.90;1.95;;;28.60;35.10;;;;;;5016521;28;20021;-72
2022/08/08 11:42:45;;;;;;;20.30;2.17;;;28.60;35.20;;;;;;5034288;28;20382;-72
2022/08/08 11:45:12;;;;;;;3.53;2.00;;;28.60;34.90;;;;;;5034077;28;20096;-72
2022/08/08 11:47:41;;;;;;;3.65;2.10;;;28.70;34.40;;;;;;5034189;28;20109;-72
2022/08/08 11:50:13;;;;;;;3.45;2.00;;;28.70;34.90;;;;;;5015723;28;20037;-72
2022/08/08 11:52:40;;;;;;;3.08;1.92;;;28.70;35.00;;;;;;5034026;28;20088;-72
2022/08/08 11:55:18;;;;;;;4.78;1.92;;;28.60;34.90;;;;;;5036218;28;20049;-73
2022/08/08 11:57:45;;;;;;;3.85;1.77;;;28.70;34.90;;;;;;5053742;28;20037;-72
2022/08/08 12:00:16;;;;;;;3.10;1.52;;;28.70;35.10;;;;;;5052462;28;20029;-72
2022/08/08 12:02:53;;;;;;;2.95;1.65;;;28.60;35.60;;;;;;5035784;28;20104;-72
2022/08/08 12:05:30;;;;;;;4.13;1.58;;;28.60;35.20;;;;;;5053660;28;20044;-72
2022/08/08 12:07:56;;;;;;;4.60;2.00;;;28.60;35.90;;;;;;5035795;28;20024;-72
2022/08/08 12:10:25;;;;;;;4.90;1.95;;;28.60;35.80;;;;;;5033642;28;20026;-72
2022/08/08 12:13:09;;;;;;;5.13;1.85;;;28.60;35.40;;;;;;5032412;28;20100;-72
2022/08/08 12:15:36;;;;;;;;;;;28.60;35.30;;;;;;5033965;28;20028;-72
2022/08/08 12:18:22;;;;;;;3.17;1.73;;;28.70;36.00;;;;;;5033442;28;20401;-72
2022/08/08 12:20:53;;;;;;;3.92;1.73;;;28.70;34.90;;;;;;5042100;28;20049;-72
2022/08/08 12:23:30;;;;;;;4.15;2.25;;;28.60;34.20;;;;;;5053276;28;20025;-72
2022/08/08 12:26:08;;;;;;;3.60;1.65;;;28.50;34.30;;;;;;5035372;28;20017;-72
2022/08/08 12:28:34;;;;;;;3.90;1.02;;;28.40;34.40;;;;;;5015661;28;20082;-72
2022/08/08 12:31:09;;;;;;;3.08;1.35;;;28.30;34.60;;;;;;5033089;28;20017;-72
2022/08/08 12:33:39;;;;;;;1.38;1.25;;;28.30;35.00;;;;;;5033212;28;20387;-72
2022/08/08 12:36:23;;;;;;;1.92;1.20;;;28.30;35.20;;;;;;5033083;28;20100;-72
2022/08/08 12:38:50;;;;;;;;;;;28.30;35.60;;;;;;5033580;28;20029;-72
2022/08/08 12:41:21;;;;;;;2.97;1.40;;;28.30;35.80;;;;;;5033053;28;20000;-72
2022/08/08 12:43:48;;;;;;;2.47;1.38;;;28.40;35.20;;;;;;5032998;28;20481;-72
2022/08/08 12:46:14;;;;;;;3.20;1.42;;;28.40;35.10;;;;;;5015122;28;20022;-72
2022/08/08 12:48:52;;;;;;;3.05;1.58;;;28.40;35.20;;;;;;5031779;28;20025;-72
2022/08/08 12:51:19;;;;;;;6.80;2.38;;;28.40;35.40;;;;;;5032508;28;20025;-72
2022/08/08 12:53:59;;;;;;;2.65;1.48;;;28.40;35.20;;;;;;5032811;28;20036;-72
2022/08/08 12:56:36;;;;;;;3.65;1.65;;;28.40;35.50;;;;;;5032878;28;20106;-72
2022/08/08 12:59:12;;;;;;;3.85;1.73;;;28.50;35.70;;;;;;5032938;28;20104;-72
2022/08/08 13:01:38;;;;;;;3.83;1.63;;;28.50;35.10;;;;;;5032779;28;20386;-72
2022/08/08 13:04:15;;;;;;;2.05;1.50;;;28.60;35.00;;;;;;5032745;28;20029;-72
2022/08/08 13:07:01;;;;;;;2.17;1.30;;;28.60;34.80;;;;;;5032551;28;20018;-72
2022/08/08 13:09:36;;;;;;;2.22;1.30;;;28.70;34.70;;;;;;5032716;28;20435;-72
2022/08/08 13:12:23;;;;;;;2.75;1.70;;;28.80;34.20;;;;;;5032653;28;20028;-72
2022/08/08 13:14:51;;;;;;;3.35;1.80;;;29.00;34.10;;;;;;5032516;28;20115;-72
2022/08/08 13:17:24;;;;;;;3.63;1.58;;;29.10;33.50;;;;;;5043788;28;20045;-72
2022/08/08 13:19:50;;;;;;;3.33;1.95;;;29.20;33.70;;;;;;5032304;28;20399;-73
2022/08/08 13:22:17;;;;;;;5.75;1.88;;;29.40;33.90;;;;;;5031290;28;20053;-72
2022/08/08 13:24:43;;;;;;;3.67;2.13;;;29.60;34.10;;;;;;5032509;28;20100;-72
2022/08/08 13:27:17;;;;;;;4.22;2.30;;;29.90;33.60;;;;;;5032440;28;20073;-72
2022/08/08 13:30:03;;;;;;;2.40;1.75;;;30.10;33.60;;;;;;5032518;28;20026;-73